Time;durP1;ratioP1;P1;durP2;ratioP2;P2;SDS_P1;SDS_P2;PMS_P1;PMS_P2;Temp;Humidity;BMP_temperature;BMP_pressure;BME280_temperature;BME280_humidity;BME280_pressure;Samples;Min_cycle;Max_cycle;Signal;HPM_P1;HPM_P2
2022/09/09 00:00:20;281161.00;0.94;485.53;51817.00;0.17;90.33;;;;;21.50;1.00;;;;;;2268453;61;2001;-84
2022/09/09 00:02:55;27658.00;0.09;48.53;0.00;0.00;0.62;;;;;21.40;1.00;;;;;;2268513;61;1030;-84
2022/09/09 00:05:33;185613.00;0.62;321.16;0.00;0.00;0.62;;;;;21.20;1.00;;;;;;2268535;61;2297;-86
2022/09/09 00:08:05;15470.00;0.05;27.42;0.00;0.00;0.62;;;;;21.00;1.00;;;;;;2268523;61;1162;-85
2022/09/09 00:10:36;29378.00;0.10;51.51;0.00;0.00;0.62;;;;;21.00;1.00;;;;;;2268479;61;1454;-85
2022/09/09 00:13:16;9850.00;0.03;17.69;0.00;0.00;0.62;;;;;20.80;1.00;;;;;;2268513;61;1103;-86
2022/09/09 00:15:56;0.00;0.00;0.62;0.00;0.00;0.62;;;;;20.50;1.00;;;;;;2268483;61;1059;-85
2022/09/09 00:18:29;48277.00;0.16;84.21;0.00;0.00;0.62;;;;;20.30;1.00;;;;;;2268442;61;1088;-86
2022/09/09 00:21:04;93139.00;0.31;161.73;0.00;0.00;0.62;;;;;20.40;1.00;;;;;;2268385;61;1984;-83
2022/09/09 00:23:36;186231.00;0.62;322.22;57853.00;0.19;100.77;;;;;20.60;1.00;;;;;;2268489;61;1028;-84
2022/09/09 00:26:09;28807.00;0.10;50.52;0.00;0.00;0.62;;;;;20.90;1.00;;;;;;2268526;61;1062;-84
2022/09/09 00:28:42;226927.00;0.76;392.26;27234.00;0.09;47.80;;;;;20.90;1.00;;;;;;2268446;61;1051;-84
2022/09/09 00:31:14;114964.00;0.38;199.39;0.00;0.00;0.62;;;;;20.70;1.00;;;;;;2268497;61;1487;-84
2022/09/09 00:33:42;286727.00;0.96;495.10;0.00;0.00;0.62;;;;;21.10;1.00;;;;;;2268405;61;1772;-84
2022/09/09 00:36:15;55812.00;0.19;97.24;0.00;0.00;0.62;;;;;21.10;1.00;;;;;;2268444;61;998;-84
2022/09/09 00:38:47;295861.00;0.99;510.80;59045.00;0.20;102.83;;;;;21.10;1.00;;;;;;2268430;61;1041;-84
2022/09/09 00:41:22;18658.00;0.06;32.95;0.00;0.00;0.62;;;;;20.70;1.00;;;;;;2268296;61;2006;-84
2022/09/09 00:43:59;411827.00;1.37;710.14;112759.00;0.38;195.59;;;;;20.60;1.00;;;;;;2268436;61;1077;-83
2022/09/09 00:46:45;121302.00;0.40;210.33;0.00;0.00;0.62;;;;;20.40;1.00;;;;;;2268475;61;888;-84
2022/09/09 00:49:24;31489.00;0.10;55.16;0.00;0.00;0.62;;;;;20.30;1.00;;;;;;2268389;61;1087;-83
2022/09/09 00:52:04;422308.00;1.41;728.16;0.00;0.00;0.62;;;;;20.40;1.00;;;;;;2268434;61;1024;-85
2022/09/09 00:54:44;178713.00;0.60;309.27;26941.00;0.09;47.29;;;;;20.10;1.00;;;;;;2268313;61;1134;-85
2022/09/09 00:57:24;140961.00;0.47;244.23;26844.00;0.09;47.12;;;;;20.00;1.00;;;;;;2268369;61;1053;-85
2022/09/09 00:59:53;412156.00;1.37;710.70;98803.00;0.33;171.51;;;;;19.80;1.00;;;;;;2268376;61;1380;-84
2022/09/09 01:02:29;116439.00;0.39;201.94;49943.00;0.17;87.09;;;;;19.60;1.00;;;;;;2268100;61;1997;-83
2022/09/09 01:04:58;367407.00;1.22;633.78;26204.00;0.09;46.01;;;;;19.10;1.00;;;;;;2268323;61;1115;-83
2022/09/09 01:07:27;25819.00;0.09;45.35;0.00;0.00;0.62;;;;;19.00;1.00;;;;;;2268243;61;943;-84
2022/09/09 01:09:57;69602.00;0.23;121.07;0.00;0.00;0.62;;;;;19.30;1.00;;;;;;2268292;61;1275;-83
2022/09/09 01:12:39;105295.00;0.35;182.71;0.00;0.00;0.62;;;;;19.60;1.00;;;;;;2268319;61;1633;-83
2022/09/09 01:15:11;15724.00;0.05;27.86;0.00;0.00;0.62;;;;;20.00;1.00;;;;;;2268245;61;1478;-84
2022/09/09 01:17:52;14657.00;0.05;26.02;0.00;0.00;0.62;;;;;20.10;1.00;;;;;;2268286;61;1186;-83
2022/09/09 01:20:26;0.00;0.00;0.62;0.00;0.00;0.62;;;;;20.40;1.00;;;;;;2268192;61;1987;-83
2022/09/09 01:23:13;46276.00;0.15;80.75;0.00;0.00;0.62;;;;;20.30;1.00;;;;;;2268304;61;1092;-83
2022/09/09 01:26:15;40514.00;0.14;70.78;0.00;0.00;0.62;;;;;20.20;1.00;;;;;;2268332;61;989;-84
2022/09/09 01:28:46;14885.00;0.05;26.41;0.00;0.00;0.62;;;;;19.80;1.00;;;;;;2268301;61;1049;-83
2022/09/09 01:31:17;65621.00;0.22;114.19;0.00;0.00;0.62;;;;;19.80;1.00;;;;;;2268264;61;1439;-84
2022/09/09 01:33:45;20099.00;0.07;35.44;0.00;0.00;0.62;;;;;19.80;1.00;;;;;;2268197;61;1076;-84
2022/09/09 01:36:20;290715.00;0.97;501.96;66473.00;0.22;115.67;;;;;19.80;1.00;;;;;;2268199;61;1041;-84
2022/09/09 01:38:47;21922.00;0.07;38.60;0.00;0.00;0.62;;;;;19.80;1.00;;;;;;2268237;61;1144;-84
2022/09/09 01:41:15;35477.00;0.12;62.06;0.00;0.00;0.62;;;;;19.90;1.00;;;;;;2268100;61;1917;-84
2022/09/09 01:43:42;90086.00;0.30;156.46;0.00;0.00;0.62;;;;;19.80;1.00;;;;;;2268311;61;1091;-85
2022/09/09 01:46:10;23329.00;0.08;41.03;0.00;0.00;0.62;;;;;19.80;1.00;;;;;;2268267;61;1052;-84
2022/09/09 01:48:37;63155.00;0.21;109.93;0.00;0.00;0.62;;;;;20.20;1.00;;;;;;2268208;61;1183;-84
2022/09/09 01:51:04;30947.00;0.10;54.22;0.00;0.00;0.62;;;;;20.50;1.00;;;;;;2268130;61;1285;-84
2022/09/09 01:53:31;0.00;0.00;0.62;0.00;0.00;0.62;;;;;20.70;1.00;;;;;;2268226;61;1015;-84
2022/09/09 01:56:08;63393.00;0.21;110.34;0.00;0.00;0.62;;;;;20.60;1.00;;;;;;2268222;61;1062;-84
2022/09/09 01:58:51;0.00;0.00;0.62;0.00;0.00;0.62;;;;;20.50;1.00;;;;;;2268175;61;1016;-85
2022/09/09 02:01:31;19550.00;0.07;34.49;0.00;0.00;0.62;;;;;20.50;1.00;;;;;;2268133;61;1927;-84
2022/09/09 02:04:00;1258.00;0.00;2.80;0.00;0.00;0.62;;;;;20.30;1.00;;;;;;2268211;61;1051;-83
2022/09/09 02:06:31;0.00;0.00;0.62;0.00;0.00;0.62;;;;;20.30;1.00;;;;;;2268186;61;968;-84
2022/09/09 02:09:02;82589.00;0.28;143.51;0.00;0.00;0.62;;;;;20.40;1.00;;;;;;2268107;61;1039;-84
2022/09/09 02:11:30;10468.00;0.03;18.76;0.00;0.00;0.62;;;;;20.40;1.00;;;;;;2268152;61;1371;-85
2022/09/09 02:14:03;149710.00;0.50;259.31;0.00;0.00;0.62;;;;;20.50;1.00;;;;;;2268092;61;1106;-84
2022/09/09 02:16:38;15113.00;0.05;26.81;0.00;0.00;0.62;;;;;20.40;1.00;;;;;;2268146;61;1125;-84
2022/09/09 02:19:13;0.00;0.00;0.62;0.00;0.00;0.62;;;;;20.30;1.00;;;;;;2268123;61;1021;-85
2022/09/09 02:21:42;61656.00;0.21;107.34;0.00;0.00;0.62;;;;;20.50;1.00;;;;;;2268142;61;1920;-85
2022/09/09 02:24:11;0.00;0.00;0.62;0.00;0.00;0.62;;;;;20.50;1.00;;;;;;2268185;61;1139;-85
2022/09/09 02:26:43;0.00;0.00;0.62;0.00;0.00;0.62;;;;;20.40;1.00;;;;;;2268120;61;990;-84
2022/09/09 02:29:17;69479.00;0.23;120.86;0.00;0.00;0.62;;;;;20.20;1.00;;;;;;2268117;61;1054;-85
2022/09/09 02:31:48;172955.00;0.58;299.36;0.00;0.00;0.62;;;;;19.90;1.00;;;;;;2268134;61;1011;-85
2022/09/09 02:34:19;10659.00;0.04;19.09;0.00;0.00;0.62;;;;;20.10;1.00;;;;;;2268037;61;2408;-85
2022/09/09 02:36:48;35280.00;0.12;61.72;0.00;0.00;0.62;;;;;20.40;1.00;;;;;;2268097;61;1149;-84
2022/09/09 02:39:15;383033.00;1.28;660.64;166520.00;0.56;288.27;;;;;20.50;1.00;;;;;;2268026;61;1330;-85
2022/09/09 02:41:43;23632.00;0.08;41.56;0.00;0.00;0.62;;;;;20.40;1.00;;;;;;2268001;61;1919;-85
2022/09/09 02:44:16;17777.00;0.06;31.42;0.00;0.00;0.62;;;;;20.40;1.00;;;;;;2268105;61;1088;-84
2022/09/09 02:47:08;18072.00;0.06;31.93;0.00;0.00;0.62;;;;;20.40;1.00;;;;;;2268150;61;1102;-84
2022/09/09 02:49:44;99825.00;0.33;173.27;0.00;0.00;0.62;;;;;20.90;1.00;;;;;;2266695;61;1394;-85
2022/09/09 02:52:16;57791.00;0.19;100.66;0.00;0.00;0.62;;;;;20.90;1.00;;;;;;2268008;61;1075;-85
2022/09/09 02:54:44;83358.00;0.28;144.84;0.00;0.00;0.62;;;;;20.60;1.00;;;;;;2268075;61;1046;-85
2022/09/09 02:57:15;78327.00;0.26;136.15;0.00;0.00;0.62;;;;;20.30;1.00;;;;;;2268040;61;1065;-85
2022/09/09 02:59:45;152040.00;0.51;263.32;0.00;0.00;0.62;;;;;20.00;1.00;;;;;;2267960;61;1352;-83
2022/09/09 03:02:12;51098.00;0.17;89.09;0.00;0.00;0.62;;;;;20.30;1.00;;;;;;2268017;61;1920;-84
2022/09/09 03:04:41;47912.00;0.16;83.58;0.00;0.00;0.62;;;;;20.50;1.00;;;;;;2268011;61;1081;-84
2022/09/09 03:07:08;10758.00;0.04;19.26;0.00;0.00;0.62;;;;;20.70;1.00;;;;;;2268005;61;1047;-84
2022/09/09 03:09:35;41605.00;0.14;72.67;0.00;0.00;0.62;;;;;20.90;1.00;;;;;;2267979;61;1283;-84
2022/09/09 03:12:03;51541.00;0.17;89.85;0.00;0.00;0.62;;;;;20.80;1.00;;;;;;2268042;61;1181;-84
2022/09/09 03:14:30;157979.00;0.53;273.56;21841.00;0.07;38.46;;;;;20.70;1.00;;;;;;2268032;61;1079;-88
2022/09/09 03:17:00;0.00;0.00;0.62;0.00;0.00;0.62;;;;;20.70;1.00;;;;;;2268027;61;1119;-83
2022/09/09 03:19:29;36807.00;0.12;64.36;0.00;0.00;0.62;;;;;20.80;1.00;;;;;;2267857;61;1256;-84
2022/09/09 03:21:56;23105.00;0.08;40.65;0.00;0.00;0.62;;;;;21.00;1.00;;;;;;2267988;61;1992;-84
2022/09/09 03:24:23;92814.00;0.31;161.17;25542.00;0.09;44.87;;;;;21.00;1.00;;;;;;2267996;61;1071;-84
2022/09/09 03:26:50;26804.00;0.09;47.05;0.00;0.00;0.62;;;;;20.80;1.00;;;;;;2268567;61;1015;-84
2022/09/09 03:29:18;0.00;0.00;0.62;0.00;0.00;0.62;;;;;20.70;1.00;;;;;;2268642;61;1285;-84
2022/09/09 03:31:46;0.00;0.00;0.62;0.00;0.00;0.62;;;;;20.20;1.00;;;;;;2268595;61;1019;-83
2022/09/09 03:34:14;57760.00;0.19;100.60;0.00;0.00;0.62;;;;;19.70;1.00;;;;;;2268611;61;992;-83
2022/09/09 03:36:42;51805.00;0.17;90.31;0.00;0.00;0.62;;;;;19.90;1.00;;;;;;2268660;61;906;-83
2022/09/09 03:39:08;67404.00;0.22;117.27;0.00;0.00;0.62;;;;;19.80;1.00;;;;;;2268657;61;953;-82
2022/09/09 03:41:37;714.00;0.00;1.86;0.00;0.00;0.62;;;;;19.70;1.00;;;;;;2268515;61;2000;-82
2022/09/09 03:44:04;0.00;0.00;0.62;0.00;0.00;0.62;;;;;19.90;1.00;;;;;;2268550;61;1613;-84
2022/09/09 03:46:31;57816.00;0.19;100.70;0.00;0.00;0.62;;;;;20.10;1.00;;;;;;2268691;61;1115;-83
2022/09/09 03:48:58;15350.00;0.05;27.22;0.00;0.00;0.62;;;;;20.20;1.00;;;;;;2268564;61;1030;-84
2022/09/09 03:51:26;55314.00;0.18;96.38;0.00;0.00;0.62;;;;;20.30;1.00;;;;;;2268586;61;1430;-84
2022/09/09 03:53:57;0.00;0.00;0.62;0.00;0.00;0.62;;;;;20.40;1.00;;;;;;2268579;61;1117;-84
2022/09/09 03:56:24;82247.00;0.27;142.92;0.00;0.00;0.62;;;;;20.70;1.00;;;;;;2268559;61;1724;-84
2022/09/09 03:58:51;293834.00;0.98;507.32;16301.00;0.05;28.86;;;;;20.80;1.00;;;;;;2268553;61;1122;-84
2022/09/09 04:01:18;99402.00;0.33;172.54;0.00;0.00;0.62;;;;;20.80;1.00;;;;;;2268497;61;1915;-85
2022/09/09 04:03:45;130811.00;0.44;226.73;0.00;0.00;0.62;;;;;21.00;1.00;;;;;;2268555;61;1570;-85
2022/09/09 04:06:14;0.00;0.00;0.62;0.00;0.00;0.62;;;;;21.20;1.00;;;;;;2268474;61;1011;-85
2022/09/09 04:08:43;109466.00;0.36;189.91;0.00;0.00;0.62;;;;;21.30;1.00;;;;;;2268584;61;1141;-85
2022/09/09 04:11:10;166450.00;0.55;288.15;0.00;0.00;0.62;;;;;21.00;1.00;;;;;;2268518;61;1295;-85
2022/09/09 04:13:39;0.00;0.00;0.62;0.00;0.00;0.62;;;;;20.70;1.00;;;;;;2268563;61;1025;-83
2022/09/09 04:16:07;0.00;0.00;0.62;0.00;0.00;0.62;;;;;20.70;1.00;;;;;;2268501;61;1087;-84
2022/09/09 04:18:35;74112.00;0.25;128.87;0.00;0.00;0.62;;;;;20.80;1.00;;;;;;2268529;61;1114;-84
2022/09/09 04:21:03;188861.00;0.63;326.75;38713.00;0.13;67.66;;;;;20.70;1.00;;;;;;2268481;61;1471;-84
2022/09/09 04:23:30;51214.00;0.17;89.29;0.00;0.00;0.62;;;;;20.50;1.00;;;;;;2268418;61;1171;-84
2022/09/09 04:26:00;113013.00;0.38;196.03;46536.00;0.16;81.20;;;;;20.50;1.00;;;;;;2268536;61;1026;-84
2022/09/09 04:28:29;53287.00;0.18;92.87;0.00;0.00;0.62;;;;;20.50;1.00;;;;;;2268410;61;1095;-84
2022/09/09 04:30:56;15575.00;0.05;27.61;0.00;0.00;0.62;;;;;20.20;1.00;;;;;;2268450;61;1361;-84
2022/09/09 04:33:26;0.00;0.00;0.62;0.00;0.00;0.62;;;;;20.00;1.00;;;;;;2268308;61;926;-83
2022/09/09 04:35:55;40075.00;0.13;70.02;0.00;0.00;0.62;;;;;19.90;1.00;;;;;;2268477;61;1136;-83
2022/09/09 04:38:23;58625.00;0.20;102.10;0.00;0.00;0.62;;;;;19.80;1.00;;;;;;2268417;61;1103;-84
2022/09/09 04:40:53;229693.00;0.77;397.02;62062.00;0.21;108.04;;;;;19.80;1.00;;;;;;2268392;61;1375;-83
2022/09/09 04:43:25;0.00;0.00;0.62;0.00;0.00;0.62;;;;;19.80;1.00;;;;;;2268439;61;1927;-84
2022/09/09 04:45:53;305167.00;1.02;526.80;121014.00;0.40;209.83;;;;;19.60;1.00;;;;;;2268326;61;986;-83
2022/09/09 04:48:21;93206.00;0.31;161.84;17913.00;0.06;31.66;;;;;19.40;1.00;;;;;;2268388;61;1071;-84
2022/09/09 04:50:58;250799.00;0.84;433.33;67482.00;0.22;117.41;;;;;19.40;1.00;;;;;;2268324;61;1398;-83
2022/09/09 04:53:25;407564.00;1.36;702.81;148548.00;0.50;257.31;;;;;19.60;1.00;;;;;;2268373;61;1130;-84
2022/09/09 04:55:52;218819.00;0.73;378.31;67207.00;0.22;116.93;;;;;19.80;1.00;;;;;;2268377;61;1127;-84
2022/09/09 04:58:22;172336.00;0.57;298.29;70298.00;0.23;122.28;;;;;20.00;1.00;;;;;;2268379;61;1087;-85
2022/09/09 05:00:49;186546.00;0.62;322.76;58088.00;0.19;101.17;;;;;20.20;1.00;;;;;;2268331;61;1541;-84
2022/09/09 05:03:15;389198.00;1.30;671.24;73351.00;0.24;127.55;;;;;20.30;1.00;;;;;;2268325;61;1930;-83
2022/09/09 05:05:42;193563.00;0.65;334.84;81484.00;0.27;141.60;;;;;20.10;1.00;;;;;;2268317;61;1528;-84
2022/09/09 05:08:10;369759.00;1.23;637.82;75034.00;0.25;130.46;;;;;20.00;1.00;;;;;;2268369;61;1090;-84
2022/09/09 05:10:38;302526.00;1.01;522.26;64182.00;0.21;111.71;;;;;20.10;1.00;;;;;;2268316;61;1262;-84
2022/09/09 05:13:06;164428.00;0.55;284.67;73183.00;0.24;127.26;;;;;20.10;1.00;;;;;;2268345;61;1121;-84
2022/09/09 05:15:35;528917.00;1.76;911.63;69437.00;0.23;120.79;;;;;19.90;1.00;;;;;;2268300;61;1104;-85
2022/09/09 05:18:02;176726.00;0.59;305.85;70224.00;0.23;122.15;;;;;20.10;1.00;;;;;;2268287;61;1554;-85
2022/09/09 05:20:30;482923.00;1.61;832.43;126786.00;0.42;219.79;;;;;20.20;1.00;;;;;;2268058;61;1761;-85
2022/09/09 05:22:57;247385.00;0.82;427.45;73398.00;0.24;127.63;;;;;20.20;1.00;;;;;;2268246;61;1919;-84
2022/09/09 05:25:25;307752.00;1.03;531.25;76001.00;0.25;132.13;;;;;20.20;1.00;;;;;;2268243;61;1027;-85
2022/09/09 05:27:53;210034.00;0.70;363.19;71259.00;0.24;123.94;;;;;20.30;1.00;;;;;;2268111;61;1619;-84
2022/09/09 05:30:20;486471.00;1.62;838.53;85323.00;0.28;148.23;;;;;20.50;1.00;;;;;;2268218;61;1394;-84
2022/09/09 05:32:48;365231.00;1.22;630.04;74600.00;0.25;129.71;;;;;20.80;1.00;;;;;;2268202;61;1501;-86
2022/09/09 05:35:16;449874.00;1.50;775.57;62647.00;0.21;109.05;;;;;21.00;1.00;;;;;;2268226;61;1036;-85
2022/09/09 05:37:43;273355.00;0.91;472.11;79449.00;0.26;138.09;;;;;21.30;1.00;;;;;;2268112;61;1044;-85
2022/09/09 05:40:11;212274.00;0.71;367.05;66148.00;0.22;115.10;;;;;21.40;1.00;;;;;;2268235;61;1308;-85
2022/09/09 05:42:38;168818.00;0.56;292.23;69056.00;0.23;120.13;;;;;21.20;1.00;;;;;;2268161;61;1928;-85
2022/09/09 05:45:07;255751.00;0.85;441.84;68766.00;0.23;119.63;;;;;21.00;1.00;;;;;;2268201;61;1122;-85
2022/09/09 05:47:34;202388.00;0.67;350.03;75072.00;0.25;130.52;;;;;20.80;1.00;;;;;;2268160;61;1141;-84
2022/09/09 05:50:02;243840.00;0.81;421.36;71263.00;0.24;123.94;;;;;20.90;1.00;;;;;;2268187;61;1266;-84
2022/09/09 05:52:29;349581.00;1.17;603.14;71075.00;0.24;123.62;;;;;21.00;1.00;;;;;;2268168;61;1112;-83
2022/09/09 05:54:56;316103.00;1.05;545.60;72826.00;0.24;126.64;;;;;21.20;1.00;;;;;;2268164;61;1106;-85
2022/09/09 05:57:23;215529.00;0.72;372.65;73452.00;0.24;127.73;;;;;21.10;1.00;;;;;;2268105;61;1010;-84
2022/09/09 05:59:50;344022.00;1.15;593.59;71329.00;0.24;124.06;;;;;21.10;1.00;;;;;;2268004;61;1670;-83
2022/09/09 06:02:17;172361.00;0.57;298.33;63137.00;0.21;109.90;;;;;20.90;1.00;;;;;;2268146;61;1993;-84
2022/09/09 06:04:44;208251.00;0.69;360.13;65485.00;0.22;113.96;;;;;20.90;1.00;;;;;;2268171;61;1759;-83
2022/09/09 06:07:14;170830.00;0.57;295.70;71937.00;0.24;125.11;;;;;20.90;1.00;;;;;;2268144;61;1111;-83
2022/09/09 06:09:41;295779.00;0.99;510.66;70143.00;0.23;122.01;;;;;21.20;1.00;;;;;;2268205;61;1407;-84
2022/09/09 06:12:08;360849.00;1.20;622.51;128219.00;0.43;222.26;;;;;21.20;1.00;;;;;;2268161;61;1037;-83
2022/09/09 06:14:36;428664.00;1.43;739.09;109635.00;0.37;190.20;;;;;21.20;1.00;;;;;;2268232;61;1228;-84
2022/09/09 06:17:03;400002.00;1.33;689.81;100485.00;0.33;174.41;;;;;21.00;1.00;;;;;;2268176;61;1104;-83
2022/09/09 06:19:30;269569.00;0.90;465.60;66974.00;0.22;116.53;;;;;21.20;1.00;;;;;;2267963;61;1351;-85
2022/09/09 06:21:58;377379.00;1.26;650.92;72170.00;0.24;125.51;;;;;21.30;1.00;;;;;;2268058;61;2006;-83
2022/09/09 06:24:26;502981.00;1.68;866.96;135261.00;0.45;234.40;;;;;21.40;1.00;;;;;;2268052;61;1492;-84
2022/09/09 06:26:53;226044.00;0.75;390.74;65080.00;0.22;113.26;;;;;21.70;1.00;;;;;;2267929;61;1064;-85
2022/09/09 06:29:20;212832.00;0.71;368.01;77260.00;0.26;134.30;;;;;22.10;1.00;;;;;;2268159;61;1386;-85
2022/09/09 06:31:47;255714.00;0.85;441.78;73410.00;0.24;127.65;;;;;22.30;1.00;;;;;;2268176;61;1037;-84
2022/09/09 06:34:14;189148.00;0.63;327.24;70556.00;0.24;122.72;;;;;22.40;1.00;;;;;;2268120;61;1694;-84
2022/09/09 06:36:41;194322.00;0.65;336.15;77777.00;0.26;135.20;;;;;22.70;1.00;;;;;;2268164;61;988;-86
2022/09/09 06:39:11;211483.00;0.70;365.69;68698.00;0.23;119.51;;;;;23.20;1.00;;;;;;2268177;61;1082;-86
2022/09/09 06:41:39;307871.00;1.03;531.45;111998.00;0.37;194.28;;;;;23.80;1.00;;;;;;2268012;61;1296;-85
2022/09/09 06:44:06;181054.00;0.60;313.30;68155.00;0.23;118.57;;;;;24.70;1.00;;;;;;2267884;61;2011;-86
2022/09/09 06:46:33;170558.00;0.57;295.23;70558.00;0.24;122.72;;;;;25.10;1.00;;;;;;2268079;61;1095;-85
2022/09/09 06:49:00;226838.00;0.76;392.11;70006.00;0.23;121.77;;;;;25.40;1.00;;;;;;2267967;61;1003;-86
2022/09/09 06:51:29;452457.00;1.51;780.01;112957.00;0.38;195.93;;;;;25.80;1.00;;;;;;2267900;61;1365;-85
2022/09/09 06:53:59;199705.00;0.67;345.42;67653.00;0.23;117.70;;;;;26.10;1.00;;;;;;2267950;61;981;-85
2022/09/09 06:56:28;234973.00;0.78;406.10;60091.00;0.20;104.63;;;;;26.30;1.00;;;;;;2268129;61;1315;-86
2022/09/09 06:58:58;331926.00;1.11;572.80;66330.00;0.22;115.42;;;;;26.30;1.00;;;;;;2268048;61;1129;-84
2022/09/09 07:01:27;345945.00;1.15;596.89;73464.00;0.24;127.75;;;;;25.40;1.00;;;;;;2268528;61;1731;-88
2022/09/09 07:03:57;340723.00;1.14;587.92;53580.00;0.18;93.38;;;;;24.80;1.00;;;;;;2268692;61;1920;-84
2022/09/09 07:06:25;270734.00;0.90;467.61;62067.00;0.21;108.05;;;;;24.60;1.00;;;;;;2268905;61;933;-84
2022/09/09 07:08:53;331660.00;1.11;572.34;73246.00;0.24;127.37;;;;;24.40;1.00;;;;;;2268778;61;1105;-86
2022/09/09 07:11:21;578134.00;1.93;996.48;187414.00;0.62;324.26;;;;;24.50;1.00;;;;;;2268783;61;1285;-86
2022/09/09 07:13:49;450506.00;1.50;776.65;80799.00;0.27;140.42;;;;;24.10;1.00;;;;;;2268771;61;1028;-85
2022/09/09 07:16:20;355115.00;1.18;612.65;70531.00;0.24;122.68;;;;;24.00;1.00;;;;;;2268752;61;1454;-85
2022/09/09 07:18:47;264337.00;0.88;456.61;70800.00;0.24;123.14;;;;;23.80;1.00;;;;;;2268675;61;1063;-85
2022/09/09 07:21:15;274281.00;0.91;473.70;71321.00;0.24;124.04;;;;;24.00;1.00;;;;;;2268646;61;1506;-86
2022/09/09 07:23:42;214636.00;0.72;371.11;73339.00;0.24;127.53;;;;;24.10;1.00;;;;;;2268666;61;1996;-84
2022/09/09 07:26:10;502678.00;1.68;866.43;167977.00;0.56;290.78;;;;;24.30;1.00;;;;;;2268640;61;1159;-85
2022/09/09 07:28:37;225244.00;0.75;389.37;64950.00;0.22;113.03;;;;;24.30;1.00;;;;;;2268644;61;1039;-84
2022/09/09 07:31:06;426372.00;1.42;735.15;87265.00;0.29;151.58;;;;;24.00;1.00;;;;;;2268714;61;1337;-85
2022/09/09 07:33:36;267773.00;0.89;462.51;70364.00;0.23;122.39;;;;;23.90;1.00;;;;;;2268785;61;1064;-85
2022/09/09 07:36:09;316482.00;1.05;546.25;67700.00;0.23;117.79;;;;;24.50;1.00;;;;;;2268681;61;1053;-85
2022/09/09 07:38:40;778774.00;2.60;1344.13;96213.00;0.32;167.03;;;;;25.50;1.00;;;;;;2268784;61;1044;-85
2022/09/09 07:41:11;593273.00;1.98;1022.61;132678.00;0.44;229.95;;;;;26.40;1.00;;;;;;2268603;61;1282;-86
2022/09/09 07:43:38;922195.00;3.07;1595.14;163936.00;0.55;283.82;;;;;26.50;1.00;;;;;;2268639;61;1997;-84
2022/09/09 07:46:05;391363.00;1.30;674.96;65851.00;0.22;114.59;;;;;26.60;1.00;;;;;;2268518;61;1096;-84
2022/09/09 07:48:34;117422024.00;391.41;65580908.00;69853.00;0.23;121.51;;;;;26.90;1.00;;;;;;2268624;61;992;-85
2022/09/09 07:51:06;347134.00;1.16;598.94;72365.00;0.24;125.85;;;;;27.30;1.00;;;;;;2268677;61;1281;-86
2022/09/09 07:53:34;961569.00;3.21;1664.52;118833.00;0.40;206.07;;;;;27.40;1.00;;;;;;2268668;61;1115;-85
2022/09/09 07:56:04;238288.00;0.79;411.81;67406.00;0.22;117.28;;;;;26.70;1.00;;;;;;2268609;61;1166;-85
2022/09/09 07:58:31;737405.00;2.46;1272.17;107895.00;0.36;187.20;;;;;26.50;1.00;;;;;;2268597;61;1029;-85
2022/09/09 08:00:58;397946.00;1.33;686.27;67097.00;0.22;116.74;;;;;26.10;1.00;;;;;;2268609;61;1367;-85
2022/09/09 08:03:25;117726192.00;392.42;66092336.00;71031.00;0.24;123.54;;;;;25.40;1.00;;;;;;2268619;61;2002;-86
2022/09/09 08:05:53;230433.00;0.77;398.29;70361.00;0.23;122.38;;;;;25.10;1.00;;;;;;2268682;61;972;-85
2022/09/09 08:08:20;164000.00;0.55;283.93;61199.00;0.20;106.55;;;;;25.50;1.00;;;;;;2268618;61;1032;-85
2022/09/09 08:10:47;421974.00;1.41;727.58;72185.00;0.24;125.54;;;;;26.10;1.00;;;;;;2268513;61;1283;-85
2022/09/09 08:13:14;243860.00;0.81;421.39;69498.00;0.23;120.89;;;;;27.00;1.00;;;;;;2268555;61;1105;-85
2022/09/09 08:15:41;168428.00;0.56;291.56;69603.00;0.23;121.07;;;;;28.00;1.00;;;;;;2268567;61;1056;-86
2022/09/09 08:18:08;254229.00;0.85;439.22;73549.00;0.25;127.89;;;;;28.60;1.00;;;;;;2268596;61;1156;-88
2022/09/09 08:20:37;215579.00;0.72;372.74;73995.00;0.25;128.66;;;;;28.80;1.00;;;;;;2268502;61;1325;-86
2022/09/09 08:23:05;329082.00;1.10;567.91;64441.00;0.21;112.15;;;;;28.30;1.00;;;;;;2268427;61;2001;-86
2022/09/09 08:25:34;235543.00;0.79;407.08;64106.00;0.21;111.57;;;;;27.60;1.00;;;;;;2268619;61;1099;-87
2022/09/09 08:28:03;178043.00;0.59;308.12;65709.00;0.22;114.34;;;;;27.00;1.00;;;;;;2268605;61;1006;-86
2022/09/09 08:30:30;172221.00;0.57;298.09;68610.00;0.23;119.36;;;;;26.10;1.00;;;;;;2268548;61;1385;-85
2022/09/09 08:32:56;376346.00;1.25;649.14;75439.00;0.25;131.16;;;;;26.20;1.00;;;;;;2268537;61;1012;-84
2022/09/09 08:35:23;578879.00;1.93;997.76;121525.00;0.41;210.71;;;;;26.20;1.00;;;;;;2268575;61;1032;-85
2022/09/09 08:37:55;274602.00;0.92;474.26;72217.00;0.24;125.59;;;;;26.30;1.00;;;;;;2268493;61;1063;-85
2022/09/09 08:40:32;219988.00;0.73;380.32;64636.00;0.22;112.49;;;;;26.20;1.00;;;;;;2268240;61;1464;-86
2022/09/09 08:43:04;361547.00;1.21;623.71;66175.00;0.22;115.15;;;;;26.20;1.00;;;;;;2268074;61;2013;-84
2022/09/09 08:45:39;56800.00;0.19;98.94;0.00;0.00;0.62;;;;;26.60;1.00;;;;;;2268209;61;1680;-85
2022/09/09 08:48:29;0.00;0.00;0.62;0.00;0.00;0.62;;;;;26.20;1.00;;;;;;2268532;61;914;-83
2022/09/09 08:51:01;353660.00;1.18;610.15;101154.00;0.34;175.56;;;;;26.00;1.00;;;;;;2268469;61;1401;-85
2022/09/09 08:53:35;113008.00;0.38;196.02;0.00;0.00;0.62;;;;;26.30;1.00;;;;;;2268459;61;1900;-84
2022/09/09 08:56:11;25257.00;0.08;44.37;0.00;0.00;0.62;;;;;26.40;1.00;;;;;;2268482;61;1040;-84
2022/09/09 08:58:48;229544.00;0.77;396.76;69268.00;0.23;120.50;;;;;25.50;1.00;;;;;;2268437;61;1147;-84
2022/09/09 09:01:42;268686.00;0.90;464.08;71114.00;0.24;123.69;;;;;24.40;1.00;;;;;;2268431;61;1305;-85
2022/09/09 09:04:28;509745.00;1.70;878.60;0.00;0.00;0.62;;;;;23.60;1.00;;;;;;2268412;61;1911;-85
2022/09/09 09:07:05;572075.00;1.91;986.03;31545.00;0.11;55.26;;;;;23.10;1.00;;;;;;2268433;61;1170;-85
2022/09/09 09:09:42;637230.00;2.12;1098.55;25387.00;0.08;44.60;;;;;23.60;1.00;;;;;;2268374;61;1434;-86
2022/09/09 09:12:17;566864.00;1.89;977.04;26634.00;0.09;46.76;;;;;24.10;1.00;;;;;;2268400;61;1048;-85
2022/09/09 09:14:47;666003.00;2.22;1148.33;39679.00;0.13;69.33;;;;;24.70;1.00;;;;;;2268425;61;1280;-84
2022/09/09 09:17:18;698532.00;2.33;1204.69;97791.00;0.33;169.76;;;;;24.80;1.00;;;;;;2268365;61;1173;-86
2022/09/09 09:19:46;809474.00;2.70;1397.65;33151.00;0.11;58.04;;;;;24.90;1.00;;;;;;2268263;61;1319;-84
2022/09/09 09:22:19;408751.00;1.36;704.85;18425.00;0.06;32.54;;;;;25.10;1.00;;;;;;2268427;61;1130;-85
2022/09/09 09:24:53;689547.00;2.30;1189.12;16735.00;0.06;29.62;;;;;24.60;1.00;;;;;;2268234;61;1992;-85
2022/09/09 09:27:33;411147.00;1.37;708.97;21170.00;0.07;37.30;;;;;24.60;1.00;;;;;;2268276;61;1098;-85
2022/09/09 09:30:06;741762.00;2.47;1279.74;27841.00;0.09;48.85;;;;;25.00;1.00;;;;;;2268392;61;1365;-85
2022/09/09 09:32:37;529517.00;1.77;912.66;0.00;0.00;0.62;;;;;25.40;1.00;;;;;;2268233;61;1153;-86
2022/09/09 09:35:12;489936.00;1.63;844.50;29448.00;0.10;51.63;;;;;25.80;1.00;;;;;;2268271;61;1701;-86
2022/09/09 09:37:43;455392.00;1.52;785.06;0.00;0.00;0.62;;;;;25.60;1.00;;;;;;2268337;61;894;-86
2022/09/09 09:40:11;372067.00;1.24;641.79;0.00;0.00;0.62;;;;;25.60;1.00;;;;;;2268225;61;1439;-85
2022/09/09 09:42:51;481799.00;1.61;830.49;0.00;0.00;0.62;;;;;24.90;1.00;;;;;;2268426;61;1110;-87
2022/09/09 09:45:33;561054.00;1.87;967.02;33932.00;0.11;59.39;;;;;24.40;1.00;;;;;;2268263;61;1034;-85
2022/09/09 09:48:02;6143.00;0.02;11.27;0.00;0.00;0.62;;;;;24.30;1.00;;;;;;2268220;61;1019;-85
2022/09/09 09:50:29;224446.00;0.75;387.99;0.00;0.00;0.62;;;;;24.70;1.00;;;;;;2268259;61;1365;-86
2022/09/09 09:52:57;344461.00;1.15;594.34;0.00;0.00;0.62;;;;;24.80;1.00;;;;;;2268268;61;912;-86
2022/09/09 09:55:24;183770.00;0.61;317.98;0.00;0.00;0.62;;;;;25.30;1.00;;;;;;2268277;61;1009;-84
2022/09/09 09:57:53;920595.00;3.07;1592.32;55316.00;0.18;96.38;;;;;25.60;1.00;;;;;;2268297;61;1047;-85